sensor_id;sensor_type;location;lat;lon;timestamp;P1;durP1;ratioP1;P2;durP2;ratioP2
64957;SDS011;51486;50.232;19.208;2023-01-29T00:02:17;23.97;;;7.83;;
64957;SDS011;51486;50.232;19.208;2023-01-29T00:04:42;16.17;;;7.17;;
64957;SDS011;51486;50.232;19.208;2023-01-29T00:07:08;17.93;;;7.40;;
64957;SDS011;51486;50.232;19.208;2023-01-29T00:09:33;23.40;;;9.13;;
64957;SDS011;51486;50.232;19.208;2023-01-29T00:11:59;23.40;;;8.43;;
64957;SDS011;51486;50.232;19.208;2023-01-29T00:14:24;20.17;;;8.37;;
64957;SDS011;51486;50.232;19.208;2023-01-29T00:16:51;19.93;;;7.93;;
64957;SDS011;51486;50.232;19.208;2023-01-29T00:19:17;19.67;;;8.23;;
64957;SDS011;51486;50.232;19.208;2023-01-29T00:21:43;16.83;;;7.43;;
64957;SDS011;51486;50.232;19.208;2023-01-29T00:24:08;18.30;;;7.93;;
64957;SDS011;51486;50.232;19.208;2023-01-29T00:26:34;16.00;;;7.57;;
64957;SDS011;51486;50.232;19.208;2023-01-29T00:29:01;21.43;;;7.63;;
64957;SDS011;51486;50.232;19.208;2023-01-29T00:31:26;20.80;;;8.03;;
64957;SDS011;51486;50.232;19.208;2023-01-29T00:33:52;20.47;;;7.33;;
64957;SDS011;51486;50.232;19.208;2023-01-29T00:36:18;21.63;;;8.40;;
64957;SDS011;51486;50.232;19.208;2023-01-29T00:38:44;16.93;;;7.40;;
64957;SDS011;51486;50.232;19.208;2023-01-29T00:41:18;16.17;;;7.30;;
64957;SDS011;51486;50.232;19.208;2023-01-29T00:44:02;14.87;;;6.97;;
64957;SDS011;51486;50.232;19.208;2023-01-29T00:46:46;12.97;;;6.57;;
64957;SDS011;51486;50.232;19.208;2023-01-29T00:49:12;14.73;;;7.23;;
64957;SDS011;51486;50.232;19.208;2023-01-29T00:51:37;15.90;;;6.17;;
64957;SDS011;51486;50.232;19.208;2023-01-29T00:54:03;16.87;;;6.53;;
64957;SDS011;51486;50.232;19.208;2023-01-29T00:56:31;19.30;;;6.93;;
64957;SDS011;51486;50.232;19.208;2023-01-29T00:58:56;19.10;;;7.30;;
64957;SDS011;51486;50.232;19.208;2023-01-29T01:01:22;19.03;;;7.93;;
64957;SDS011;51486;50.232;19.208;2023-01-29T01:04:06;18.80;;;7.30;;
64957;SDS011;51486;50.232;19.208;2023-01-29T01:06:31;14.03;;;6.10;;
64957;SDS011;51486;50.232;19.208;2023-01-29T01:08:57;11.53;;;5.83;;
64957;SDS011;51486;50.232;19.208;2023-01-29T01:11:41;18.37;;;7.73;;
64957;SDS011;51486;50.232;19.208;2023-01-29T01:14:06;14.43;;;6.43;;
64957;SDS011;51486;50.232;19.208;2023-01-29T01:16:32;15.97;;;6.37;;
64957;SDS011;51486;50.232;19.208;2023-01-29T01:18:57;12.37;;;6.57;;
64957;SDS011;51486;50.232;19.208;2023-01-29T01:21:23;16.97;;;6.50;;
64957;SDS011;51486;50.232;19.208;2023-01-29T01:23:48;12.10;;;6.13;;
64957;SDS011;51486;50.232;19.208;2023-01-29T01:26:16;16.43;;;5.83;;
64957;SDS011;51486;50.232;19.208;2023-01-29T01:28:41;14.97;;;6.43;;
64957;SDS011;51486;50.232;19.208;2023-01-29T01:31:07;10.80;;;5.20;;
64957;SDS011;51486;50.232;19.208;2023-01-29T01:33:33;10.60;;;4.90;;
64957;SDS011;51486;50.232;19.208;2023-01-29T01:36:00;10.13;;;4.53;;
64957;SDS011;51486;50.232;19.208;2023-01-29T01:38:26;13.03;;;5.40;;
64957;SDS011;51486;50.232;19.208;2023-01-29T01:40:51;7.47;;;4.70;;
64957;SDS011;51486;50.232;19.208;2023-01-29T01:43:16;10.67;;;5.33;;
64957;SDS011;51486;50.232;19.208;2023-01-29T01:45:42;12.27;;;5.47;;
64957;SDS011;51486;50.232;19.208;2023-01-29T01:50:40;10.57;;;5.13;;
64957;SDS011;51486;50.232;19.208;2023-01-29T01:53:11;11.07;;;4.53;;
64957;SDS011;51486;50.232;19.208;2023-01-29T01:55:39;13.00;;;6.00;;
64957;SDS011;51486;50.232;19.208;2023-01-29T01:58:11;13.77;;;5.43;;
64957;SDS011;51486;50.232;19.208;2023-01-29T02:00:37;15.07;;;5.73;;
64957;SDS011;51486;50.232;19.208;2023-01-29T02:03:03;14.13;;;5.87;;
64957;SDS011;51486;50.232;19.208;2023-01-29T02:05:47;10.27;;;5.13;;
64957;SDS011;51486;50.232;19.208;2023-01-29T02:08:37;8.90;;;4.53;;
64957;SDS011;51486;50.232;19.208;2023-01-29T02:11:22;9.17;;;4.97;;
64957;SDS011;51486;50.232;19.208;2023-01-29T02:13:48;13.23;;;5.83;;
64957;SDS011;51486;50.232;19.208;2023-01-29T02:16:18;13.33;;;6.43;;
64957;SDS011;51486;50.232;19.208;2023-01-29T02:18:43;14.37;;;6.80;;
64957;SDS011;51486;50.232;19.208;2023-01-29T02:21:35;16.13;;;6.73;;
64957;SDS011;51486;50.232;19.208;2023-01-29T02:29:26;11.03;;;6.07;;
64957;SDS011;51486;50.232;19.208;2023-01-29T02:31:59;10.10;;;5.53;;
64957;SDS011;51486;50.232;19.208;2023-01-29T02:34:30;8.50;;;4.50;;
64957;SDS011;51486;50.232;19.208;2023-01-29T02:37:02;9.67;;;5.07;;
64957;SDS011;51486;50.232;19.208;2023-01-29T02:44:53;8.90;;;4.70;;
64957;SDS011;51486;50.232;19.208;2023-01-29T02:52:39;10.87;;;4.13;;
64957;SDS011;51486;50.232;19.208;2023-01-29T02:55:12;6.40;;;3.67;;
64957;SDS011;51486;50.232;19.208;2023-01-29T02:57:41;10.30;;;4.27;;
64957;SDS011;51486;50.232;19.208;2023-01-29T03:00:41;8.03;;;4.07;;
64957;SDS011;51486;50.232;19.208;2023-01-29T03:03:06;11.97;;;4.47;;
64957;SDS011;51486;50.232;19.208;2023-01-29T03:05:36;8.77;;;4.27;;
64957;SDS011;51486;50.232;19.208;2023-01-29T03:08:07;15.00;;;4.83;;
64957;SDS011;51486;50.232;19.208;2023-01-29T03:10:43;11.87;;;4.27;;
64957;SDS011;51486;50.232;19.208;2023-01-29T03:13:25;10.63;;;3.93;;
64957;SDS011;51486;50.232;19.208;2023-01-29T03:15:58;8.57;;;4.27;;
64957;SDS011;51486;50.232;19.208;2023-01-29T03:18:27;8.77;;;4.20;;
64957;SDS011;51486;50.232;19.208;2023-01-29T03:20:56;9.57;;;4.87;;
64957;SDS011;51486;50.232;19.208;2023-01-29T03:23:24;17.90;;;4.10;;
64957;SDS011;51486;50.232;19.208;2023-01-29T03:26:08;7.53;;;3.80;;
64957;SDS011;51486;50.232;19.208;2023-01-29T03:28:53;8.10;;;4.50;;
64957;SDS011;51486;50.232;19.208;2023-01-29T03:31:38;8.20;;;3.83;;
64957;SDS011;51486;50.232;19.208;2023-01-29T03:34:22;8.13;;;3.80;;
64957;SDS011;51486;50.232;19.208;2023-01-29T03:36:53;8.73;;;4.13;;
64957;SDS011;51486;50.232;19.208;2023-01-29T03:39:20;10.30;;;4.23;;
64957;SDS011;51486;50.232;19.208;2023-01-29T03:47:16;10.00;;;4.73;;
64957;SDS011;51486;50.232;19.208;2023-01-29T03:49:50;9.50;;;4.60;;
64957;SDS011;51486;50.232;19.208;2023-01-29T03:54:56;8.87;;;3.87;;
64957;SDS011;51486;50.232;19.208;2023-01-29T03:57:30;8.53;;;4.17;;
64957;SDS011;51486;50.232;19.208;2023-01-29T04:00:05;9.80;;;4.07;;
64957;SDS011;51486;50.232;19.208;2023-01-29T04:02:35;6.13;;;3.93;;
64957;SDS011;51486;50.232;19.208;2023-01-29T04:05:07;10.27;;;4.37;;
64957;SDS011;51486;50.232;19.208;2023-01-29T04:07:34;7.20;;;3.63;;
64957;SDS011;51486;50.232;19.208;2023-01-29T04:10:08;10.40;;;3.73;;
64957;SDS011;51486;50.232;19.208;2023-01-29T04:12:43;7.90;;;4.37;;
64957;SDS011;51486;50.232;19.208;2023-01-29T04:15:12;6.50;;;3.47;;
64957;SDS011;51486;50.232;19.208;2023-01-29T04:17:40;8.37;;;4.30;;
64957;SDS011;51486;50.232;19.208;2023-01-29T04:20:07;9.43;;;4.90;;
64957;SDS011;51486;50.232;19.208;2023-01-29T04:22:34;9.10;;;4.23;;
64957;SDS011;51486;50.232;19.208;2023-01-29T04:25:01;10.20;;;4.20;;
64957;SDS011;51486;50.232;19.208;2023-01-29T04:27:47;9.43;;;4.07;;
64957;SDS011;51486;50.232;19.208;2023-01-29T04:37:55;11.93;;;3.87;;
64957;SDS011;51486;50.232;19.208;2023-01-29T04:40:25;6.53;;;3.20;;
64957;SDS011;51486;50.232;19.208;2023-01-29T04:50:52;6.27;;;3.00;;
64957;SDS011;51486;50.232;19.208;2023-01-29T04:55:46;10.53;;;3.83;;
64957;SDS011;51486;50.232;19.208;2023-01-29T05:00:53;7.80;;;3.90;;
64957;SDS011;51486;50.232;19.208;2023-01-29T05:03:20;5.50;;;3.33;;
64957;SDS011;51486;50.232;19.208;2023-01-29T05:05:47;8.03;;;3.93;;
64957;SDS011;51486;50.232;19.208;2023-01-29T05:08:13;8.20;;;4.43;;
64957;SDS011;51486;50.232;19.208;2023-01-29T05:10:40;6.20;;;3.47;;
64957;SDS011;51486;50.232;19.208;2023-01-29T05:13:07;12.63;;;4.40;;
64957;SDS011;51486;50.232;19.208;2023-01-29T05:15:41;8.97;;;5.20;;
64957;SDS011;51486;50.232;19.208;2023-01-29T05:18:08;7.57;;;4.00;;
64957;SDS011;51486;50.232;19.208;2023-01-29T05:20:35;10.13;;;5.03;;
64957;SDS011;51486;50.232;19.208;2023-01-29T05:23:01;7.53;;;4.10;;
64957;SDS011;51486;50.232;19.208;2023-01-29T05:25:28;7.63;;;4.27;;
64957;SDS011;51486;50.232;19.208;2023-01-29T05:27:53;8.80;;;4.50;;
64957;SDS011;51486;50.232;19.208;2023-01-29T05:30:36;8.33;;;3.73;;
64957;SDS011;51486;50.232;19.208;2023-01-29T05:33:02;13.17;;;4.00;;
64957;SDS011;51486;50.232;19.208;2023-01-29T05:35:28;7.97;;;3.67;;
64957;SDS011;51486;50.232;19.208;2023-01-29T05:37:56;6.60;;;3.47;;
64957;SDS011;51486;50.232;19.208;2023-01-29T05:40:22;7.63;;;3.90;;
64957;SDS011;51486;50.232;19.208;2023-01-29T05:42:48;6.27;;;3.23;;
64957;SDS011;51486;50.232;19.208;2023-01-29T05:45:14;7.60;;;3.50;;
64957;SDS011;51486;50.232;19.208;2023-01-29T05:47:39;7.63;;;2.93;;
64957;SDS011;51486;50.232;19.208;2023-01-29T05:50:05;5.97;;;2.73;;
64957;SDS011;51486;50.232;19.208;2023-01-29T05:52:30;5.93;;;3.33;;
64957;SDS011;51486;50.232;19.208;2023-01-29T05:54:56;5.57;;;2.83;;
64957;SDS011;51486;50.232;19.208;2023-01-29T05:57:21;6.10;;;3.00;;
64957;SDS011;51486;50.232;19.208;2023-01-29T05:59:47;7.50;;;3.50;;
64957;SDS011;51486;50.232;19.208;2023-01-29T06:02:12;6.53;;;3.40;;
64957;SDS011;51486;50.232;19.208;2023-01-29T06:04:37;5.87;;;2.97;;
64957;SDS011;51486;50.232;19.208;2023-01-29T06:07:03;7.30;;;3.23;;
64957;SDS011;51486;50.232;19.208;2023-01-29T06:09:29;6.90;;;3.40;;
64957;SDS011;51486;50.232;19.208;2023-01-29T06:11:54;6.23;;;3.17;;
64957;SDS011;51486;50.232;19.208;2023-01-29T06:14:19;3.87;;;2.77;;
64957;SDS011;51486;50.232;19.208;2023-01-29T06:16:45;5.50;;;2.97;;
64957;SDS011;51486;50.232;19.208;2023-01-29T06:19:10;6.13;;;3.17;;
64957;SDS011;51486;50.232;19.208;2023-01-29T06:21:36;5.03;;;2.90;;
64957;SDS011;51486;50.232;19.208;2023-01-29T06:24:01;7.73;;;3.70;;
64957;SDS011;51486;50.232;19.208;2023-01-29T06:26:27;6.03;;;2.83;;
64957;SDS011;51486;50.232;19.208;2023-01-29T06:28:52;7.50;;;3.70;;
64957;SDS011;51486;50.232;19.208;2023-01-29T06:31:17;11.70;;;4.73;;
64957;SDS011;51486;50.232;19.208;2023-01-29T06:33:43;7.93;;;3.93;;
64957;SDS011;51486;50.232;19.208;2023-01-29T06:36:08;6.90;;;4.13;;
64957;SDS011;51486;50.232;19.208;2023-01-29T06:38:34;9.60;;;5.00;;
64957;SDS011;51486;50.232;19.208;2023-01-29T06:41:06;8.70;;;4.13;;
64957;SDS011;51486;50.232;19.208;2023-01-29T06:43:32;9.63;;;4.60;;
64957;SDS011;51486;50.232;19.208;2023-01-29T06:45:57;16.90;;;5.07;;
64957;SDS011;51486;50.232;19.208;2023-01-29T06:48:23;7.30;;;3.57;;
64957;SDS011;51486;50.232;19.208;2023-01-29T06:50:49;8.40;;;4.27;;
64957;SDS011;51486;50.232;19.208;2023-01-29T06:53:15;7.33;;;4.43;;
64957;SDS011;51486;50.232;19.208;2023-01-29T06:55:40;9.47;;;4.40;;
64957;SDS011;51486;50.232;19.208;2023-01-29T06:58:07;9.60;;;4.27;;
64957;SDS011;51486;50.232;19.208;2023-01-29T07:00:33;9.00;;;4.63;;
64957;SDS011;51486;50.232;19.208;2023-01-29T07:02:58;15.33;;;6.43;;
64957;SDS011;51486;50.232;19.208;2023-01-29T07:05:24;13.30;;;5.33;;
64957;SDS011;51486;50.232;19.208;2023-01-29T07:07:49;11.23;;;5.63;;
64957;SDS011;51486;50.232;19.208;2023-01-29T07:10:14;15.30;;;5.93;;
64957;SDS011;51486;50.232;19.208;2023-01-29T07:12:40;12.13;;;5.57;;
64957;SDS011;51486;50.232;19.208;2023-01-29T07:15:05;13.87;;;5.00;;
64957;SDS011;51486;50.232;19.208;2023-01-29T07:17:31;10.43;;;5.13;;
64957;SDS011;51486;50.232;19.208;2023-01-29T07:19:56;15.10;;;4.93;;
64957;SDS011;51486;50.232;19.208;2023-01-29T07:22:22;9.47;;;5.23;;
64957;SDS011;51486;50.232;19.208;2023-01-29T07:24:47;11.73;;;5.30;;
64957;SDS011;51486;50.232;19.208;2023-01-29T07:27:13;13.27;;;4.83;;
64957;SDS011;51486;50.232;19.208;2023-01-29T07:29:38;23.73;;;5.93;;
64957;SDS011;51486;50.232;19.208;2023-01-29T07:32:03;18.43;;;6.23;;
64957;SDS011;51486;50.232;19.208;2023-01-29T07:34:29;17.13;;;6.10;;
64957;SDS011;51486;50.232;19.208;2023-01-29T07:36:55;55.63;;;14.90;;
64957;SDS011;51486;50.232;19.208;2023-01-29T07:39:21;28.70;;;10.23;;
64957;SDS011;51486;50.232;19.208;2023-01-29T07:41:46;21.27;;;9.63;;
64957;SDS011;51486;50.232;19.208;2023-01-29T07:44:12;36.63;;;12.20;;
64957;SDS011;51486;50.232;19.208;2023-01-29T07:46:37;37.60;;;13.93;;
64957;SDS011;51486;50.232;19.208;2023-01-29T07:49:02;23.63;;;8.37;;
64957;SDS011;51486;50.232;19.208;2023-01-29T07:51:28;15.13;;;6.77;;
64957;SDS011;51486;50.232;19.208;2023-01-29T07:53:53;13.67;;;7.13;;
64957;SDS011;51486;50.232;19.208;2023-01-29T07:56:18;10.13;;;5.27;;
64957;SDS011;51486;50.232;19.208;2023-01-29T07:58:44;13.33;;;5.87;;
64957;SDS011;51486;50.232;19.208;2023-01-29T08:01:09;11.57;;;4.23;;
64957;SDS011;51486;50.232;19.208;2023-01-29T08:03:35;13.10;;;4.73;;
64957;SDS011;51486;50.232;19.208;2023-01-29T08:06:01;10.47;;;4.63;;
64957;SDS011;51486;50.232;19.208;2023-01-29T08:08:27;11.17;;;4.30;;
64957;SDS011;51486;50.232;19.208;2023-01-29T08:10:52;9.37;;;4.37;;
64957;SDS011;51486;50.232;19.208;2023-01-29T08:13:17;10.73;;;5.17;;
64957;SDS011;51486;50.232;19.208;2023-01-29T08:15:43;9.70;;;4.60;;
64957;SDS011;51486;50.232;19.208;2023-01-29T08:18:09;16.93;;;4.90;;
64957;SDS011;51486;50.232;19.208;2023-01-29T08:20:35;9.10;;;4.93;;
64957;SDS011;51486;50.232;19.208;2023-01-29T08:23:01;15.00;;;6.30;;
64957;SDS011;51486;50.232;19.208;2023-01-29T08:25:26;14.10;;;6.27;;
64957;SDS011;51486;50.232;19.208;2023-01-29T08:27:52;17.97;;;6.17;;
64957;SDS011;51486;50.232;19.208;2023-01-29T08:30:17;19.00;;;6.57;;
64957;SDS011;51486;50.232;19.208;2023-01-29T08:32:42;12.90;;;6.57;;
64957;SDS011;51486;50.232;19.208;2023-01-29T08:35:08;15.10;;;7.30;;
64957;SDS011;51486;50.232;19.208;2023-01-29T08:37:33;14.97;;;6.73;;
64957;SDS011;51486;50.232;19.208;2023-01-29T08:39:59;18.53;;;7.67;;
64957;SDS011;51486;50.232;19.208;2023-01-29T08:42:24;20.07;;;7.17;;
64957;SDS011;51486;50.232;19.208;2023-01-29T08:44:49;20.87;;;7.63;;
64957;SDS011;51486;50.232;19.208;2023-01-29T08:47:15;18.70;;;7.90;;
64957;SDS011;51486;50.232;19.208;2023-01-29T08:49:40;17.47;;;7.27;;
64957;SDS011;51486;50.232;19.208;2023-01-29T08:52:06;11.50;;;6.23;;
64957;SDS011;51486;50.232;19.208;2023-01-29T08:54:31;18.57;;;7.53;;
64957;SDS011;51486;50.232;19.208;2023-01-29T08:56:56;14.80;;;6.37;;
64957;SDS011;51486;50.232;19.208;2023-01-29T08:59:22;13.73;;;6.57;;
64957;SDS011;51486;50.232;19.208;2023-01-29T09:01:48;13.53;;;6.10;;
64957;SDS011;51486;50.232;19.208;2023-01-29T09:04:13;14.60;;;6.27;;
64957;SDS011;51486;50.232;19.208;2023-01-29T09:06:38;10.40;;;5.70;;
64957;SDS011;51486;50.232;19.208;2023-01-29T09:09:04;10.53;;;5.50;;
64957;SDS011;51486;50.232;19.208;2023-01-29T09:11:29;11.67;;;6.20;;
64957;SDS011;51486;50.232;19.208;2023-01-29T09:13:55;15.60;;;6.73;;
64957;SDS011;51486;50.232;19.208;2023-01-29T09:16:20;23.70;;;6.90;;
64957;SDS011;51486;50.232;19.208;2023-01-29T09:18:45;14.47;;;6.60;;
64957;SDS011;51486;50.232;19.208;2023-01-29T09:21:11;14.23;;;6.83;;
64957;SDS011;51486;50.232;19.208;2023-01-29T09:23:36;15.17;;;6.00;;
64957;SDS011;51486;50.232;19.208;2023-01-29T09:26:02;13.97;;;6.27;;
64957;SDS011;51486;50.232;19.208;2023-01-29T09:28:27;17.17;;;6.77;;
64957;SDS011;51486;50.232;19.208;2023-01-29T09:30:53;14.10;;;5.73;;
64957;SDS011;51486;50.232;19.208;2023-01-29T09:33:18;11.47;;;4.73;;
64957;SDS011;51486;50.232;19.208;2023-01-29T09:35:43;10.50;;;4.67;;
64957;SDS011;51486;50.232;19.208;2023-01-29T09:38:12;12.30;;;5.53;;
64957;SDS011;51486;50.232;19.208;2023-01-29T09:43:09;9.57;;;4.97;;
64957;SDS011;51486;50.232;19.208;2023-01-29T09:45:37;6.80;;;3.60;;
64957;SDS011;51486;50.232;19.208;2023-01-29T09:48:07;8.63;;;4.40;;
64957;SDS011;51486;50.232;19.208;2023-01-29T09:50:36;8.57;;;4.47;;
64957;SDS011;51486;50.232;19.208;2023-01-29T09:53:06;13.97;;;4.83;;
64957;SDS011;51486;50.232;19.208;2023-01-29T09:55:40;10.73;;;4.93;;
64957;SDS011;51486;50.232;19.208;2023-01-29T09:58:12;11.57;;;4.33;;
64957;SDS011;51486;50.232;19.208;2023-01-29T10:00:59;12.87;;;4.60;;
64957;SDS011;51486;50.232;19.208;2023-01-29T10:08:40;16.47;;;6.37;;
64957;SDS011;51486;50.232;19.208;2023-01-29T10:11:13;16.53;;;5.80;;
64957;SDS011;51486;50.232;19.208;2023-01-29T10:13:56;9.53;;;4.67;;
64957;SDS011;51486;50.232;19.208;2023-01-29T10:22:23;21.20;;;6.00;;
64957;SDS011;51486;50.232;19.208;2023-01-29T10:24:46;11.73;;;5.30;;
64957;SDS011;51486;50.232;19.208;2023-01-29T10:27:15;14.37;;;6.20;;
64957;SDS011;51486;50.232;19.208;2023-01-29T10:29:41;11.57;;;4.77;;
64957;SDS011;51486;50.232;19.208;2023-01-29T10:32:07;9.53;;;5.20;;
64957;SDS011;51486;50.232;19.208;2023-01-29T10:34:44;12.57;;;4.00;;
64957;SDS011;51486;50.232;19.208;2023-01-29T10:37:16;9.40;;;4.10;;
64957;SDS011;51486;50.232;19.208;2023-01-29T10:39:42;8.30;;;4.10;;
64957;SDS011;51486;50.232;19.208;2023-01-29T10:44:40;8.83;;;3.90;;
64957;SDS011;51486;50.232;19.208;2023-01-29T10:49:54;8.40;;;4.07;;
64957;SDS011;51486;50.232;19.208;2023-01-29T10:55:20;7.23;;;3.20;;
64957;SDS011;51486;50.232;19.208;2023-01-29T11:00:29;7.73;;;3.90;;
64957;SDS011;51486;50.232;19.208;2023-01-29T11:02:58;11.23;;;4.53;;
64957;SDS011;51486;50.232;19.208;2023-01-29T11:05:30;9.27;;;3.70;;
64957;SDS011;51486;50.232;19.208;2023-01-29T11:08:05;15.57;;;4.90;;
64957;SDS011;51486;50.232;19.208;2023-01-29T11:10:35;9.27;;;4.27;;
64957;SDS011;51486;50.232;19.208;2023-01-29T11:13:02;12.47;;;4.97;;
64957;SDS011;51486;50.232;19.208;2023-01-29T11:15:29;11.73;;;5.10;;
64957;SDS011;51486;50.232;19.208;2023-01-29T11:18:06;9.67;;;4.37;;
64957;SDS011;51486;50.232;19.208;2023-01-29T11:20:35;9.77;;;4.57;;
64957;SDS011;51486;50.232;19.208;2023-01-29T11:23:01;9.03;;;3.80;;
64957;SDS011;51486;50.232;19.208;2023-01-29T11:25:26;11.23;;;4.50;;
64957;SDS011;51486;50.232;19.208;2023-01-29T11:28:00;6.80;;;3.40;;
64957;SDS011;51486;50.232;19.208;2023-01-29T11:30:30;9.17;;;4.63;;
64957;SDS011;51486;50.232;19.208;2023-01-29T11:33:08;8.23;;;4.03;;
64957;SDS011;51486;50.232;19.208;2023-01-29T11:35:34;10.33;;;4.20;;
64957;SDS011;51486;50.232;19.208;2023-01-29T11:40:41;9.23;;;4.97;;
64957;SDS011;51486;50.232;19.208;2023-01-29T11:45:45;13.53;;;5.10;;
64957;SDS011;51486;50.232;19.208;2023-01-29T11:48:20;10.03;;;4.37;;
64957;SDS011;51486;50.232;19.208;2023-01-29T11:50:50;9.40;;;4.40;;
64957;SDS011;51486;50.232;19.208;2023-01-29T11:55:53;10.80;;;5.33;;
64957;SDS011;51486;50.232;19.208;2023-01-29T11:58:29;15.17;;;5.77;;
64957;SDS011;51486;50.232;19.208;2023-01-29T12:00:56;20.50;;;7.63;;
64957;SDS011;51486;50.232;19.208;2023-01-29T12:03:33;18.17;;;7.43;;
64957;SDS011;51486;50.232;19.208;2023-01-29T12:06:00;18.80;;;7.63;;
64957;SDS011;51486;50.232;19.208;2023-01-29T12:08:30;22.60;;;7.63;;
64957;SDS011;51486;50.232;19.208;2023-01-29T12:13:36;37.83;;;12.63;;
64957;SDS011;51486;50.232;19.208;2023-01-29T12:18:38;24.93;;;9.90;;
64957;SDS011;51486;50.232;19.208;2023-01-29T12:21:04;20.87;;;9.50;;
64957;SDS011;51486;50.232;19.208;2023-01-29T12:23:40;22.83;;;8.83;;
64957;SDS011;51486;50.232;19.208;2023-01-29T12:26:14;17.30;;;8.83;;
64957;SDS011;51486;50.232;19.208;2023-01-29T12:31:25;15.13;;;7.10;;
64957;SDS011;51486;50.232;19.208;2023-01-29T12:33:52;18.77;;;7.87;;
64957;SDS011;51486;50.232;19.208;2023-01-29T12:38:57;13.20;;;6.77;;
64957;SDS011;51486;50.232;19.208;2023-01-29T12:42:07;22.13;;;6.10;;
64957;SDS011;51486;50.232;19.208;2023-01-29T12:44:14;12.93;;;6.37;;
64957;SDS011;51486;50.232;19.208;2023-01-29T12:46:45;14.67;;;7.40;;
64957;SDS011;51486;50.232;19.208;2023-01-29T12:49:15;16.73;;;5.73;;
64957;SDS011;51486;50.232;19.208;2023-01-29T12:51:46;16.20;;;5.87;;
64957;SDS011;51486;50.232;19.208;2023-01-29T12:54:15;14.37;;;5.70;;
64957;SDS011;51486;50.232;19.208;2023-01-29T12:56:45;12.20;;;6.00;;
64957;SDS011;51486;50.232;19.208;2023-01-29T12:59:14;11.20;;;5.03;;
64957;SDS011;51486;50.232;19.208;2023-01-29T13:01:44;11.20;;;5.77;;
64957;SDS011;51486;50.232;19.208;2023-01-29T13:04:15;17.93;;;5.33;;
64957;SDS011;51486;50.232;19.208;2023-01-29T13:06:44;12.80;;;5.33;;
64957;SDS011;51486;50.232;19.208;2023-01-29T13:09:13;15.03;;;5.40;;
64957;SDS011;51486;50.232;19.208;2023-01-29T13:11:40;10.33;;;5.40;;
64957;SDS011;51486;50.232;19.208;2023-01-29T13:16:34;11.33;;;4.93;;
64957;SDS011;51486;50.232;19.208;2023-01-29T13:19:05;13.07;;;5.07;;
64957;SDS011;51486;50.232;19.208;2023-01-29T13:21:38;11.17;;;5.10;;
64957;SDS011;51486;50.232;19.208;2023-01-29T13:24:06;12.10;;;5.20;;
64957;SDS011;51486;50.232;19.208;2023-01-29T13:26:35;9.87;;;4.77;;
64957;SDS011;51486;50.232;19.208;2023-01-29T13:29:01;9.87;;;3.80;;
64957;SDS011;51486;50.232;19.208;2023-01-29T13:31:36;10.13;;;4.70;;
64957;SDS011;51486;50.232;19.208;2023-01-29T13:34:15;9.90;;;4.33;;
64957;SDS011;51486;50.232;19.208;2023-01-29T13:36:45;7.47;;;4.03;;
64957;SDS011;51486;50.232;19.208;2023-01-29T13:39:30;10.97;;;4.00;;
64957;SDS011;51486;50.232;19.208;2023-01-29T13:41:57;10.83;;;4.57;;
64957;SDS011;51486;50.232;19.208;2023-01-29T13:46:53;18.93;;;4.40;;
64957;SDS011;51486;50.232;19.208;2023-01-29T13:49:23;8.43;;;4.10;;
64957;SDS011;51486;50.232;19.208;2023-01-29T13:51:50;12.27;;;4.30;;
64957;SDS011;51486;50.232;19.208;2023-01-29T13:54:16;8.33;;;4.10;;
64957;SDS011;51486;50.232;19.208;2023-01-29T13:56:46;15.23;;;4.83;;
64957;SDS011;51486;50.232;19.208;2023-01-29T13:59:22;10.60;;;4.67;;
64957;SDS011;51486;50.232;19.208;2023-01-29T14:04:14;9.90;;;4.73;;
64957;SDS011;51486;50.232;19.208;2023-01-29T14:06:47;8.80;;;4.37;;
64957;SDS011;51486;50.232;19.208;2023-01-29T14:11:58;10.60;;;5.37;;
64957;SDS011;51486;50.232;19.208;2023-01-29T14:17:07;13.47;;;5.90;;
64957;SDS011;51486;50.232;19.208;2023-01-29T14:19:33;11.23;;;5.50;;
64957;SDS011;51486;50.232;19.208;2023-01-29T14:21:58;14.23;;;5.13;;
64957;SDS011;51486;50.232;19.208;2023-01-29T14:24:24;9.80;;;4.83;;
64957;SDS011;51486;50.232;19.208;2023-01-29T14:26:53;11.07;;;5.37;;
64957;SDS011;51486;50.232;19.208;2023-01-29T14:29:21;10.33;;;5.10;;
64957;SDS011;51486;50.232;19.208;2023-01-29T14:36:44;11.20;;;5.13;;
64957;SDS011;51486;50.232;19.208;2023-01-29T14:39:44;11.73;;;5.43;;
64957;SDS011;51486;50.232;19.208;2023-01-29T14:42:03;9.90;;;4.57;;
64957;SDS011;51486;50.232;19.208;2023-01-29T14:47:24;10.40;;;5.17;;
64957;SDS011;51486;50.232;19.208;2023-01-29T14:55:37;11.87;;;5.40;;
64957;SDS011;51486;50.232;19.208;2023-01-29T14:58:03;30.37;;;10.13;;
64957;SDS011;51486;50.232;19.208;2023-01-29T15:00:30;13.27;;;6.33;;
64957;SDS011;51486;50.232;19.208;2023-01-29T15:02:58;35.17;;;10.30;;
64957;SDS011;51486;50.232;19.208;2023-01-29T15:05:28;28.27;;;8.60;;
64957;SDS011;51486;50.232;19.208;2023-01-29T15:07:59;19.77;;;8.00;;
64957;SDS011;51486;50.232;19.208;2023-01-29T15:12:58;24.50;;;9.90;;
64957;SDS011;51486;50.232;19.208;2023-01-29T15:18:03;21.43;;;9.17;;
64957;SDS011;51486;50.232;19.208;2023-01-29T15:20:36;17.60;;;8.93;;
64957;SDS011;51486;50.232;19.208;2023-01-29T15:23:03;15.50;;;7.83;;
64957;SDS011;51486;50.232;19.208;2023-01-29T15:25:33;23.20;;;10.00;;
64957;SDS011;51486;50.232;19.208;2023-01-29T15:27:59;28.93;;;11.10;;
64957;SDS011;51486;50.232;19.208;2023-01-29T15:30:28;55.60;;;21.67;;
64957;SDS011;51486;50.232;19.208;2023-01-29T15:32:56;54.33;;;18.20;;
64957;SDS011;51486;50.232;19.208;2023-01-29T15:40:24;30.13;;;11.27;;
64957;SDS011;51486;50.232;19.208;2023-01-29T15:42:50;37.00;;;12.17;;
64957;SDS011;51486;50.232;19.208;2023-01-29T15:45:29;23.43;;;9.30;;
64957;SDS011;51486;50.232;19.208;2023-01-29T15:48:02;18.50;;;8.83;;
64957;SDS011;51486;50.232;19.208;2023-01-29T15:50:28;28.63;;;11.20;;
64957;SDS011;51486;50.232;19.208;2023-01-29T15:52:54;20.53;;;9.57;;
64957;SDS011;51486;50.232;19.208;2023-01-29T15:55:22;20.67;;;7.90;;
64957;SDS011;51486;50.232;19.208;2023-01-29T15:57:48;17.87;;;7.23;;
64957;SDS011;51486;50.232;19.208;2023-01-29T16:00:23;23.63;;;10.23;;
64957;SDS011;51486;50.232;19.208;2023-01-29T16:02:50;21.87;;;9.23;;
64957;SDS011;51486;50.232;19.208;2023-01-29T16:05:16;25.43;;;8.80;;
64957;SDS011;51486;50.232;19.208;2023-01-29T16:07:43;17.47;;;7.80;;
64957;SDS011;51486;50.232;19.208;2023-01-29T16:10:28;24.07;;;8.57;;
64957;SDS011;51486;50.232;19.208;2023-01-29T16:12:54;24.47;;;9.13;;
64957;SDS011;51486;50.232;19.208;2023-01-29T16:15:22;24.23;;;9.33;;
64957;SDS011;51486;50.232;19.208;2023-01-29T16:17:51;19.37;;;10.53;;
64957;SDS011;51486;50.232;19.208;2023-01-29T16:20:37;22.63;;;10.50;;
64957;SDS011;51486;50.232;19.208;2023-01-29T16:23:03;25.13;;;11.53;;
64957;SDS011;51486;50.232;19.208;2023-01-29T16:25:29;27.67;;;12.03;;
64957;SDS011;51486;50.232;19.208;2023-01-29T16:27:55;26.93;;;11.53;;
64957;SDS011;51486;50.232;19.208;2023-01-29T16:30:23;23.70;;;9.23;;
64957;SDS011;51486;50.232;19.208;2023-01-29T16:32:49;21.53;;;9.73;;
64957;SDS011;51486;50.232;19.208;2023-01-29T16:35:15;22.90;;;10.00;;
64957;SDS011;51486;50.232;19.208;2023-01-29T16:37:40;24.50;;;9.10;;
64957;SDS011;51486;50.232;19.208;2023-01-29T16:40:14;20.37;;;8.90;;
64957;SDS011;51486;50.232;19.208;2023-01-29T16:42:40;19.47;;;9.77;;